createdAt,value
2023-03-24T23:12:05.286Z,1.87
2023-03-24T23:13:05.238Z,1.95
2023-03-24T23:14:05.157Z,2.01
2023-03-24T23:15:04.915Z,2.03
2023-03-24T23:16:05.448Z,2.05
2023-03-24T23:16:10.759Z,2.06
2023-03-24T23:17:02.050Z,2.07
2023-03-24T23:18:02.621Z,2.06
2023-03-24T23:19:02.194Z,2.09
2023-03-24T23:20:02.078Z,2.08
2023-03-24T23:21:01.926Z,2.09
2023-03-24T23:22:02.949Z,2.10
2023-03-24T23:23:04.366Z,2.09
2023-03-24T23:24:02.631Z,2.09
2023-03-24T23:25:02.928Z,2.11
2023-03-24T23:26:02.811Z,2.12
2023-03-24T23:27:03.430Z,2.11
2023-03-24T23:28:03.024Z,2.10
2023-03-24T23:29:02.868Z,2.12
2023-03-24T23:30:03.319Z,2.11
2023-03-24T23:31:03.330Z,2.10
2023-03-24T23:32:02.585Z,2.12
2023-03-24T23:33:03.119Z,2.12
2023-03-24T23:34:02.832Z,2.11
2023-03-24T23:35:02.683Z,2.11
2023-03-24T23:36:02.633Z,2.13
2023-03-24T23:37:03.268Z,2.11
2023-03-24T23:38:02.797Z,2.11
2023-03-24T23:39:02.773Z,2.11
2023-03-24T23:40:02.581Z,2.12
2023-03-24T23:41:03.234Z,2.12
2023-03-24T23:42:02.010Z,2.10
2023-03-24T23:43:02.657Z,2.12
2023-03-24T23:44:02.408Z,2.12
2023-03-24T23:45:02.408Z,2.11
2023-03-24T23:46:02.364Z,2.10
2023-03-24T23:47:02.895Z,2.14
2023-03-24T23:48:03.019Z,2.11
2023-03-24T23:49:02.619Z,2.13
2023-03-24T23:50:02.467Z,2.13
2023-03-24T23:51:02.376Z,2.11
2023-03-24T23:52:02.165Z,2.09
2023-03-24T23:53:02.182Z,2.11
2023-03-24T23:54:02.025Z,2.12
2023-03-24T23:55:02.599Z,2.13
2023-03-24T23:56:02.269Z,2.10
2023-03-24T23:57:02.429Z,2.11
2023-03-24T23:58:02.220Z,2.10
2023-03-24T23:59:02.171Z,2.10
